^^
B2 Weather Station Historical Data
Daily Summary for December 12, 2018 Units:  English    Metric   Both
Daily Weekly Monthly Yearly Custom
  High: Low: Average:
Temperature: 42.7 °F 29.5 °F 36.3 °F
Dew Point: 35.5 °F 25.3 °F 30.8 °F
Humidity: 93% 65% 81%
Wind Speed: 21.9mph 0mph 9.3mph
Wind Gust: 14mph - -
Wind- - WSW
Pressure: 30.01 in 29.78 in -
Precipitation: 0 in    
Historical Graphs
 
 
Tabular Data for December 12, 2018
Time Temperature Dew Point Pressure Wind Wind Speed Wind Gust Humidity Rainfall Rate (Hourly) solar
00:04 30.7 °F 28.9 °F 29.99 in SSE 4.6 mph 3.3 mph 93% 0 in 0.00 W/m2
00:09 30.8 °F 29 °F 29.98 in SE 4.6 mph 2.9 mph 93% 0 in 0.00 W/m2
00:14 31.1 °F 29.3 °F 29.98 in SE 8.1 mph 3.4 mph 93% 0 in 0.00 W/m2
00:19 31.5 °F 29.7 °F 29.98 in SE 8.1 mph 5.2 mph 93% 0 in 0.00 W/m2
00:24 31.9 °F 30.1 °F 29.98 in SE 5.8 mph 4.1 mph 93% 0 in 0.00 W/m2
00:29 32.1 °F 30.3 °F 29.98 in SE 6.9 mph 4 mph 93% 0 in 0.00 W/m2
00:34 32.2 °F 30.1 °F 29.97 in SE 8.1 mph 4.1 mph 92% 0 in 0.00 W/m2
00:39 32.3 °F 30.2 °F 29.97 in SE 7 mph 5.6 mph 92% 0 in 0.00 W/m2
00:44 32.3 °F 30.2 °F 29.96 in SE 5.8 mph 4.7 mph 92% 0 in 0.00 W/m2
00:49 32.3 °F 30 °F 29.96 in SSE 6.9 mph 4.3 mph 91% 0 in 0.00 W/m2
00:54 32.3 °F 30 °F 29.97 in SSE 6.9 mph 4.6 mph 91% 0 in 0.00 W/m2
00:59 32.3 °F 30 °F 29.96 in SE 6.9 mph 4.3 mph 91% 0 in 0.00 W/m2
01:04 32.2 °F 29.9 °F 29.96 in SE 6.9 mph 5.3 mph 91% 0 in 0.00 W/m2
01:09 32.2 °F 29.9 °F 29.96 in SSE 6.9 mph 4.2 mph 91% 0 in 0.00 W/m2
01:14 32.2 °F 29.9 °F 29.96 in SE 8.1 mph 5.3 mph 91% 0 in 0.00 W/m2
01:19 32.2 °F 29.9 °F 29.95 in SE 6.9 mph 5.1 mph 91% 0 in 0.00 W/m2
01:24 32.2 °F 29.9 °F 29.96 in SSE 6.9 mph 4.4 mph 91% 0 in 0.00 W/m2
01:29 32.2 °F 29.9 °F 29.95 in SE 6.9 mph 4.1 mph 91% 0 in 0.00 W/m2
01:34 32.2 °F 29.9 °F 29.95 in SSE 6.9 mph 5.9 mph 91% 0 in 0.00 W/m2
01:39 32.3 °F 30 °F 29.95 in SE 5 mph 4.2 mph 91% 0 in 0.00 W/m2
01:44 32.3 °F 30 °F 29.94 in SE 6.9 mph 4.9 mph 91% 0 in 0.00 W/m2
01:49 32.4 °F 30.1 °F 29.94 in SSE 6 mph 5.2 mph 91% 0 in 0.00 W/m2
01:54 32.5 °F 30.2 °F 29.94 in SSE 6.9 mph 4 mph 91% 0 in 0.00 W/m2
01:59 32.5 °F 30.2 °F 29.94 in SSE 6.9 mph 5.4 mph 91% 0 in 0.00 W/m2
02:04 32.6 °F 30.3 °F 29.93 in SE 5.8 mph 3.9 mph 91% 0 in 0.00 W/m2
02:09 32.6 °F 30.3 °F 29.93 in SE 6.9 mph 4.5 mph 91% 0 in 0.00 W/m2
02:14 32.7 °F 30.4 °F 29.92 in SSE 5.8 mph 4 mph 91% 0 in 0.00 W/m2
02:19 32.8 °F 30.5 °F 29.92 in SE 6.9 mph 5.8 mph 91% 0 in 0.00 W/m2
02:24 32.9 °F 30.6 °F 29.93 in SE 6 mph 4.9 mph 91% 0 in 0.00 W/m2
02:29 32.9 °F 30.3 °F 29.93 in South 5.8 mph 3.2 mph 90% 0 in 0.00 W/m2
02:34 32.8 °F 30.2 °F 29.92 in SSE 3.5 mph 3.1 mph 90% 0 in 0.00 W/m2
02:39 32.8 °F 30.5 °F 29.92 in SSE 5.8 mph 4.5 mph 91% 0 in 0.00 W/m2
02:44 32.9 °F 30.6 °F 29.91 in SSE 6.9 mph 4.8 mph 91% 0 in 0.00 W/m2
02:49 33.1 °F 30.8 °F 29.91 in SE 6.9 mph 5 mph 91% 0 in 0.00 W/m2
02:54 33.4 °F 31.1 °F 29.91 in SSE 6.9 mph 4.5 mph 91% 0 in 0.00 W/m2
02:59 33.8 °F 31.2 °F 29.90 in SSE 5 mph 4.5 mph 90% 0 in 0.00 W/m2
03:04 34 °F 31.4 °F 29.90 in SSE 9.2 mph 5.7 mph 90% 0 in 0.00 W/m2
03:09 34.1 °F 31.5 °F 29.90 in SSE 9.2 mph 6 mph 90% 0 in 0.00 W/m2
03:14 34.3 °F 31.7 °F 29.89 in North 8.1 mph 6.5 mph 90% 0 in 0.00 W/m2
03:19 34.6 °F 31.7 °F 29.89 in SSE 10.4 mph 8.2 mph 89% 0 in 0.00 W/m2
03:24 34.7 °F 31.8 °F 29.89 in South 8.1 mph 6.6 mph 89% 0 in 0.00 W/m2
03:29 34.7 °F 31.5 °F 29.89 in SSE 9.2 mph 6.6 mph 88% 0 in 0.00 W/m2
03:34 34.7 °F 31.5 °F 29.88 in South 9.2 mph 6.9 mph 88% 0 in 0.00 W/m2
03:39 34.6 °F 31.4 °F 29.87 in South 9.2 mph 5 mph 88% 0 in 0.00 W/m2
03:44 34.6 °F 31.4 °F 29.87 in SSE 11.5 mph 6.5 mph 88% 0 in 0.00 W/m2
03:49 34.6 °F 31.4 °F 29.86 in SSE 8.1 mph 6.1 mph 88% 0 in 0.00 W/m2
03:54 34.7 °F 31.8 °F 29.86 in South 11.5 mph 8.3 mph 89% 0 in 0.00 W/m2
03:59 34.7 °F 31.5 °F 29.86 in South 9.2 mph 6.2 mph 88% 0 in 0.00 W/m2
04:04 34.6 °F 31.7 °F 29.86 in SSE 8.1 mph 7.1 mph 89% 0 in 0.00 W/m2
04:09 34.7 °F 31.8 °F 29.87 in South 8 mph 5.7 mph 89% 0 in 0.00 W/m2
04:14 34.7 °F 31.8 °F 29.86 in SSE 7 mph 5.2 mph 89% 0 in 0.00 W/m2
04:19 34.7 °F 31.8 °F 29.86 in SSE 8.1 mph 6.4 mph 89% 0 in 0.00 W/m2
04:24 34.8 °F 31.9 °F 29.86 in South 6.9 mph 5.6 mph 89% 0 in 0.00 W/m2
04:29 35 °F 32.1 °F 29.86 in SSE 6 mph 4.4 mph 89% 0 in 0.00 W/m2
04:34 35.2 °F 32.3 °F 29.86 in South 10.4 mph 5.8 mph 89% 0 in 0.00 W/m2
04:39 35.6 °F 32.7 °F 29.85 in SSE 10.4 mph 6.6 mph 89% 0 in 0.00 W/m2
04:44 35.7 °F 32.5 °F 29.85 in SSE 10.4 mph 6 mph 88% 0 in 0.00 W/m2
04:49 35.5 °F 32 °F 29.85 in SSE 7 mph 6.7 mph 87% 0 in 0.00 W/m2
04:54 35.3 °F 32.1 °F 29.85 in South 5.8 mph 5.2 mph 88% 0 in 0.00 W/m2
04:59 35.2 °F 32 °F 29.85 in South 9.2 mph 7.6 mph 88% 0 in 0.00 W/m2
05:04 35.2 °F 32 °F 29.85 in SSW 9.2 mph 6.2 mph 88% 0 in 0.00 W/m2
05:09 35.1 °F 31.9 °F 29.85 in SSE 7 mph 6.3 mph 88% 0 in 0.00 W/m2
05:14 35.1 °F 31.9 °F 29.84 in SSE 9.2 mph 6.2 mph 88% 0 in 0.00 W/m2
05:19 35.1 °F 31.9 °F 29.84 in South 11.5 mph 6.5 mph 88% 0 in 0.00 W/m2
05:24 35.2 °F 32 °F 29.84 in South 12.7 mph 9.2 mph 88% 0 in 0.00 W/m2
05:29 35.2 °F 32 °F 29.84 in SSE 10.4 mph 4.9 mph 88% 0 in 0.00 W/m2
05:34 35.3 °F 32.4 °F 29.84 in SSE 10.4 mph 5.8 mph 89% 0 in 0.00 W/m2
05:39 35.4 °F 32.5 °F 29.84 in SSE 12.7 mph 6.3 mph 89% 0 in 0.00 W/m2
05:44 35.5 °F 32.3 °F 29.84 in South 13.8 mph 6.9 mph 88% 0 in 0.00 W/m2
05:49 35.5 °F 32.3 °F 29.84 in SSE 10.4 mph 4.9 mph 88% 0 in 0.00 W/m2
05:54 35.7 °F 32.8 °F 29.83 in SSE 10.4 mph 7.1 mph 89% 0 in 0.00 W/m2
05:59 35.9 °F 32.7 °F 29.83 in SSE 12.7 mph 7.4 mph 88% 0 in 0.00 W/m2
06:04 36 °F 32.8 °F 29.83 in SSE 11.5 mph 8 mph 88% 0 in 0.00 W/m2
06:09 36 °F 32.5 °F 29.83 in South 10.4 mph 6.3 mph 87% 0 in 0.00 W/m2
06:14 36 °F 32.8 °F 29.83 in SSW 11.5 mph 5.9 mph 88% 0 in 0.00 W/m2
06:19 35.9 °F 32.4 °F 29.83 in SSW 8.1 mph 4.2 mph 87% 0 in 0.00 W/m2
06:24 35.7 °F 32.5 °F 29.83 in SSW 11.5 mph 6.8 mph 88% 0 in 0.00 W/m2
06:29 35.8 °F 32.6 °F 29.83 in SSE 10.4 mph 5.3 mph 88% 0 in 0.00 W/m2
06:34 35.9 °F 32.7 °F 29.83 in SSE 10.4 mph 6.6 mph 88% 0 in 0.00 W/m2
06:39 36 °F 32.8 °F 29.82 in SSE 10.4 mph 6.1 mph 88% 0 in 0.00 W/m2
06:44 36 °F 32.8 °F 29.82 in SSW 13.8 mph 9 mph 88% 0 in 0.00 W/m2
06:49 36.1 °F 32.9 °F 29.82 in SW 11.5 mph 6 mph 88% 0 in 0.00 W/m2
06:54 36 °F 32.8 °F 29.82 in South 11.5 mph 7.6 mph 88% 0 in 0.00 W/m2
06:59 36.1 °F 32.9 °F 29.82 in North 12.7 mph 6.8 mph 88% 0 in 0.00 W/m2
07:04 36.1 °F 32.9 °F 29.82 in South 11.5 mph 9.6 mph 88% 0 in 0.00 W/m2
07:09 36.1 °F 32.9 °F 29.82 in SSW 11.5 mph 7.7 mph 88% 0 in 0.00 W/m2
07:14 36.1 °F 32.9 °F 29.82 in South 11.5 mph 8.3 mph 88% 0 in 0.00 W/m2
07:19 36.2 °F 33 °F 29.81 in South 9.2 mph 9.7 mph 88% 0 in 0.00 W/m2
07:24 36.2 °F 32.7 °F 29.81 in SSE 11 mph 6.5 mph 87% 0 in 0.00 W/m2
07:29 36.2 °F 32.7 °F 29.81 in SSE 11.5 mph 8 mph 87% 0 in 5.00 W/m2
07:34 36.2 °F 33 °F 29.81 in SSW 9.2 mph 6.1 mph 88% 0 in 12.00 W/m2
07:39 36.3 °F 32.8 °F 29.82 in SSW 10.4 mph 7.3 mph 87% 0 in 16.00 W/m2
07:44 36.3 °F 32.8 °F 29.81 in SSE 11.5 mph 5.2 mph 87% 0 in 21.00 W/m2
07:49 36.2 °F 32.7 °F 29.81 in SSW 9.2 mph 3.9 mph 87% 0 in 25.00 W/m2
07:54 36.2 °F 32.7 °F 29.81 in South 8.1 mph 4.6 mph 87% 0 in 28.00 W/m2
07:59 36.1 °F 32.9 °F 29.81 in South 11.5 mph 7.3 mph 88% 0 in 37.00 W/m2
08:04 36.1 °F 32.9 °F 29.81 in SSW 10.4 mph 5.1 mph 88% 0 in 37.00 W/m2
08:09 36.1 °F 32.6 °F 29.81 in South 11.5 mph 5.7 mph 87% 0 in 63.00 W/m2
08:14 36.2 °F 32.7 °F 29.81 in SSW 8.1 mph 6.1 mph 87% 0 in 51.00 W/m2
08:19 36.4 °F 33.2 °F 29.81 in SSW 7 mph 5.8 mph 88% 0 in 114.00 W/m2
08:24 36.7 °F 33.5 °F 29.81 in SW 8.1 mph 5.8 mph 88% 0 in 132.00 W/m2
08:29 37.2 °F 33.7 °F 29.82 in SW 10.4 mph 5.2 mph 87% 0 in 148.00 W/m2
08:34 37.5 °F 33.7 °F 29.81 in South 11.5 mph 6.5 mph 86% 0 in 153.00 W/m2
08:39 37.8 °F 34 °F 29.81 in South 6.9 mph 5.2 mph 86% 0 in 176.00 W/m2
08:44 38 °F 33.9 °F 29.81 in South 11.5 mph 6.8 mph 85% 0 in 195.00 W/m2
08:49 38.2 °F 34.1 °F 29.81 in SSW 16.1 mph 5.2 mph 85% 0 in 267.00 W/m2
08:54 38.5 °F 34.4 °F 29.81 in SSW 12.7 mph 8.3 mph 85% 0 in 160.00 W/m2
08:59 38.3 °F 33.9 °F 29.81 in North 11.5 mph 6 mph 84% 0 in 125.00 W/m2
09:04 38.5 °F 34.4 °F 29.81 in South 9.2 mph 5.3 mph 85% 0 in 236.00 W/m2
09:09 38.9 °F 34.5 °F 29.81 in SSW 10.4 mph 7.2 mph 84% 0 in 257.00 W/m2
09:14 39.3 °F 34.6 °F 29.81 in South 11.5 mph 4.7 mph 83% 0 in 265.00 W/m2
09:19 39.5 °F 34.8 °F 29.80 in SSW 11.5 mph 9.4 mph 83% 0 in 287.00 W/m2
09:24 39.6 °F 34.9 °F 29.81 in North 11 mph 6 mph 83% 0 in 292.00 W/m2
09:29 40 °F 35.3 °F 29.81 in South 11.5 mph 4 mph 83% 0 in 308.00 W/m2
09:34 40.2 °F 35.1 °F 29.80 in North 18 mph 8.5 mph 82% 0 in 315.00 W/m2
09:39 40.3 °F 35.2 °F 29.80 in South 6.9 mph 4.3 mph 82% 0 in 320.00 W/m2
09:44 40.4 °F 35 °F 29.81 in SSE 18.4 mph 5.9 mph 81% 0 in 329.00 W/m2
09:49 40.6 °F 35.2 °F 29.81 in North 12.7 mph 6.8 mph 81% 0 in 341.00 W/m2
09:54 40.8 °F 35.4 °F 29.80 in SSW 13.8 mph 7.6 mph 81% 0 in 352.00 W/m2
09:59 40.9 °F 35.2 °F 29.80 in North 17.3 mph 8 mph 80% 0 in 362.00 W/m2
10:04 40.9 °F 35.2 °F 29.80 in SSW 17.3 mph 7.3 mph 80% 0 in 392.00 W/m2
10:09 40.9 °F 35.5 °F 29.80 in North 9.2 mph 4.5 mph 81% 0 in 392.00 W/m2
10:14 41.1 °F 35.4 °F 29.80 in SW 11.5 mph 8 mph 80% 0 in 404.00 W/m2
10:19 41.1 °F 35.4 °F 29.80 in SW 11.5 mph 5.7 mph 80% 0 in 406.00 W/m2
10:24 41 °F 35 °F 29.80 in SW 11.5 mph 7.4 mph 79% 0 in 397.00 W/m2
10:29 41.2 °F 35.2 °F 29.80 in SW 12.7 mph 9.5 mph 79% 0 in 404.00 W/m2
10:34 41.3 °F 35 °F 29.80 in North 10.4 mph 6.3 mph 78% 0 in 422.00 W/m2
10:39 41.3 °F 35 °F 29.80 in SW 16.1 mph 7.9 mph 78% 0 in 417.00 W/m2
10:44 41.5 °F 35.2 °F 29.80 in North 12 mph 8.4 mph 78% 0 in 427.00 W/m2
10:49 41.7 °F 34.7 °F 29.80 in SW 15 mph 5.9 mph 76% 0 in 404.00 W/m2
10:54 41.7 °F 34.4 °F 29.80 in SSW 15 mph 7.2 mph 75% 0 in 425.00 W/m2
10:59 41.6 °F 33.9 °F 29.79 in SW 18.4 mph 9.8 mph 74% 0 in 425.00 W/m2
11:04 41.6 °F 33.9 °F 29.79 in SW 21 mph 12.9 mph 74% 0 in 434.00 W/m2
11:09 41.5 °F 33.8 °F 29.79 in SW 19.6 mph 9.2 mph 74% 0 in 438.00 W/m2
11:14 41.6 °F 34.3 °F 29.79 in North 12.7 mph 9.6 mph 75% 0 in 436.00 W/m2
11:19 41.7 °F 34 °F 29.79 in SW 15 mph 13 mph 74% 0 in 436.00 W/m2
11:24 41.6 °F 33.6 °F 29.78 in North 21.9 mph 14 mph 73% 0 in 438.00 W/m2
11:29 41.7 °F 34 °F 29.79 in North 15 mph 11.5 mph 74% 0 in 441.00 W/m2
11:34 41.6 °F 32.9 °F 29.79 in North 17.3 mph 10.2 mph 71% 0 in 443.00 W/m2
11:39 41.9 °F 33.2 °F 29.79 in WSW 17.3 mph 8.6 mph 71% 0 in 439.00 W/m2
11:44 41.7 °F 32.6 °F 29.79 in SW 15 mph 12.2 mph 70% 0 in 441.00 W/m2
11:49 41.8 °F 33.1 °F 29.79 in North 19.6 mph 9.5 mph 71% 0 in 446.00 W/m2
11:54 41.9 °F 33.2 °F 29.79 in North 16.1 mph 10.5 mph 71% 0 in 443.00 W/m2
11:59 42 °F 32.9 °F 29.79 in SSW 19.6 mph 9.1 mph 70% 0 in 443.00 W/m2
12:04 42.1 °F 33 °F 29.79 in SW 12 mph 11.2 mph 70% 0 in 443.00 W/m2
12:09 42.2 °F 32.8 °F 29.79 in North 15 mph 9.1 mph 69% 0 in 439.00 W/m2
12:14 42.2 °F 32.8 °F 29.79 in SW 13.8 mph 10.2 mph 69% 0 in 469.00 W/m2
12:19 42.3 °F 33.2 °F 29.79 in North 12.7 mph 10.9 mph 70% 0 in 427.00 W/m2
12:24 42 °F 32.9 °F 29.79 in WSW 15 mph 5.9 mph 70% 0 in 432.00 W/m2
12:29 42 °F 31.5 °F 29.79 in North 16.1 mph 13.5 mph 66% 0 in 431.00 W/m2
12:34 41.8 °F 31.3 °F 29.79 in North 13.8 mph 10.8 mph 66% 0 in 431.00 W/m2
12:39 42 °F 31.5 °F 29.79 in North 16 mph 10.7 mph 66% 0 in 418.00 W/m2
12:44 42.1 °F 31.9 °F 29.79 in North 16.1 mph 8.1 mph 67% 0 in 422.00 W/m2
12:49 42.3 °F 32.5 °F 29.79 in West 16.1 mph 9.8 mph 68% 0 in 417.00 W/m2
12:54 42.5 °F 32.7 °F 29.79 in North 12 mph 8.3 mph 68% 0 in 410.00 W/m2
12:59 42.4 °F 31.5 °F 29.79 in North 12.7 mph 8.8 mph 65% 0 in 404.00 W/m2
13:04 42.5 °F 31.6 °F 29.79 in WSW 11.5 mph 11 mph 65% 0 in 403.00 W/m2
13:09 42.5 °F 32.7 °F 29.79 in North 10.4 mph 10.7 mph 68% 0 in 388.00 W/m2
13:14 42.7 °F 32.9 °F 29.79 in SW 14 mph 11 mph 68% 0 in 383.00 W/m2
13:19 42.4 °F 31.8 °F 29.80 in SW 17.3 mph 10.4 mph 66% 0 in 378.00 W/m2
13:24 42.3 °F 31.7 °F 29.80 in North 19.6 mph 10.4 mph 66% 0 in 374.00 W/m2
13:29 42.2 °F 31.6 °F 29.80 in North 15 mph 11.1 mph 66% 0 in 367.00 W/m2
13:34 42 °F 31.8 °F 29.79 in SW 17.3 mph 8.6 mph 67% 0 in 364.00 W/m2
13:39 42.2 °F 32 °F 29.80 in SW 12.7 mph 7.8 mph 67% 0 in 346.00 W/m2
13:44 42.3 °F 32.1 °F 29.79 in SW 17.3 mph 11 mph 67% 0 in 336.00 W/m2
13:49 42.2 °F 32 °F 29.80 in SSW 8.1 mph 7.6 mph 67% 0 in 327.00 W/m2
13:54 42.2 °F 31.6 °F 29.80 in North 19.6 mph 11 mph 66% 0 in 318.00 W/m2
13:59 42.2 °F 31.6 °F 29.80 in South 11.5 mph 7.1 mph 66% 0 in 309.00 W/m2
14:04 42.1 °F 31.6 °F 29.80 in WSW 18.4 mph 11.4 mph 66% 0 in 290.00 W/m2
14:09 42 °F 31.8 °F 29.80 in SW 16.1 mph 6.8 mph 67% 0 in 295.00 W/m2
14:14 42.3 °F 32.1 °F 29.80 in SW 13.8 mph 9.3 mph 67% 0 in 279.00 W/m2
14:19 42.4 °F 32.2 °F 29.80 in WSW 15 mph 10.5 mph 67% 0 in 265.00 W/m2
14:24 42 °F 31.5 °F 29.80 in SSW 19.6 mph 8.8 mph 66% 0 in 255.00 W/m2
14:29 42 °F 31.1 °F 29.80 in WSW 15 mph 8.4 mph 65% 0 in 243.00 W/m2
14:34 41.9 °F 31.4 °F 29.80 in North 18.4 mph 10.5 mph 66% 0 in 202.00 W/m2
14:39 41.8 °F 32 °F 29.80 in SW 11.5 mph 8.2 mph 68% 0 in 213.00 W/m2
14:44 41.8 °F 32.4 °F 29.80 in SSW 15 mph 6.7 mph 69% 0 in 204.00 W/m2
14:49 41.8 °F 32 °F 29.80 in North 13.8 mph 9.4 mph 68% 0 in 192.00 W/m2
14:54 41.8 °F 31.6 °F 29.81 in North 16.1 mph 9.5 mph 67% 0 in 169.00 W/m2
14:59 41.6 °F 31.4 °F 29.81 in SW 15 mph 7.6 mph 67% 0 in 160.00 W/m2
15:04 41.6 °F 31.4 °F 29.82 in North 11.5 mph 7.6 mph 67% 0 in 176.00 W/m2
15:09 41.6 °F 31.4 °F 29.82 in WSW 12.7 mph 10.3 mph 67% 0 in 79.00 W/m2
15:14 41.2 °F 31.4 °F 29.82 in North 6.9 mph 5.9 mph 68% 0 in 37.00 W/m2
15:19 41 °F 31.6 °F 29.83 in North 10.4 mph 5.4 mph 69% 0 in 26.00 W/m2
15:24 40.9 °F 31.9 °F 29.83 in North 8.1 mph 8.2 mph 70% 0 in 25.00 W/m2
15:29 40.8 °F 31.8 °F 29.83 in WSW 9.2 mph 5.8 mph 70% 0 in 18.00 W/m2
15:35 40.5 °F 31.5 °F 29.84 in WSW 11.5 mph 7.2 mph 70% 0 in 16.00 W/m2
15:39 40.3 °F 31.6 °F 29.84 in WSW 11.5 mph 5.4 mph 71% 0 in 12.00 W/m2
15:44 40.1 °F 31.4 °F 29.84 in North 11.5 mph 4.5 mph 71% 0 in 14.00 W/m2
15:49 39.9 °F 31.6 °F 29.84 in North 15 mph 7.4 mph 72% 0 in 12.00 W/m2
15:54 39.8 °F 31.8 °F 29.85 in North 13.8 mph 8.3 mph 73% 0 in 11.00 W/m2
15:59 39.7 °F 31.8 °F 29.85 in North 11.5 mph 7.8 mph 73% 0 in 7.00 W/m2
16:04 39.5 °F 31.6 °F 29.86 in North 7 mph 6.7 mph 73% 0 in 0.00 W/m2
16:09 39.4 °F 31.8 °F 29.86 in North 7 mph 5.6 mph 74% 0 in 0.00 W/m2
16:14 39.3 °F 31.7 °F 29.86 in WSW 11.5 mph 8.1 mph 74% 0 in 0.00 W/m2
16:19 39.2 °F 31.6 °F 29.86 in North 11.5 mph 6.9 mph 74% 0 in 0.00 W/m2
16:24 39 °F 31.4 °F 29.87 in North 8 mph 5.5 mph 74% 0 in 0.00 W/m2
16:29 38.8 °F 31.6 °F 29.87 in North 9.2 mph 5.2 mph 75% 0 in 0.00 W/m2
16:34 38.6 °F 31.4 °F 29.87 in North 11.5 mph 7.7 mph 75% 0 in 0.00 W/m2
16:39 38.3 °F 31.1 °F 29.88 in North 16.1 mph 10.3 mph 75% 0 in 0.00 W/m2
16:44 38 °F 31.1 °F 29.88 in SW 13.8 mph 8.8 mph 76% 0 in 0.00 W/m2
16:50 37.7 °F 31.1 °F 29.88 in North 16.1 mph 10.1 mph 77% 0 in 0.00 W/m2
16:54 37.2 °F 30.7 °F 29.89 in North 17.3 mph 8.9 mph 77% 0 in 0.00 W/m2
16:59 36.8 °F 30.3 °F 29.89 in North 15 mph 7.1 mph 77% 0 in 0.00 W/m2
17:04 36.6 °F 30.4 °F 29.89 in North 11.5 mph 8.4 mph 78% 0 in 0.00 W/m2
17:09 36.4 °F 30.2 °F 29.90 in North 8.1 mph 8 mph 78% 0 in 0.00 W/m2
17:14 36.2 °F 30 °F 29.90 in North 10.4 mph 5.1 mph 78% 0 in 0.00 W/m2
17:19 35.9 °F 29.7 °F 29.90 in North 15 mph 8.8 mph 78% 0 in 0.00 W/m2
17:24 35.5 °F 29.6 °F 29.91 in North 11.5 mph 9.1 mph 79% 0 in 0.00 W/m2
17:29 35.2 °F 29.3 °F 29.91 in North 16.1 mph 9.2 mph 79% 0 in 0.00 W/m2
17:34 35.2 °F 29.6 °F 29.91 in SW 11.5 mph 7.7 mph 80% 0 in 0.00 W/m2
17:39 35.2 °F 29.6 °F 29.91 in North 16.1 mph 8.6 mph 80% 0 in 0.00 W/m2
17:44 35.1 °F 29.6 °F 29.91 in North 9.2 mph 5.3 mph 80% 0 in 0.00 W/m2
17:49 35 °F 29.1 °F 29.92 in North 15 mph 6.2 mph 79% 0 in 0.00 W/m2
17:54 35.1 °F 28.9 °F 29.92 in North 11.5 mph 7.9 mph 78% 0 in 0.00 W/m2
17:59 35.1 °F 28.9 °F 29.92 in WSW 10.4 mph 6.1 mph 78% 0 in 0.00 W/m2
18:04 35.2 °F 29 °F 29.93 in WSW 10.4 mph 5.2 mph 78% 0 in 0.00 W/m2
18:09 35.2 °F 29 °F 29.93 in West 10.4 mph 2.8 mph 78% 0 in 0.00 W/m2
18:14 35.1 °F 28.9 °F 29.93 in North 9.2 mph 4.5 mph 78% 0 in 0.00 W/m2
18:19 35 °F 28.5 °F 29.93 in WNW 6.9 mph 4.3 mph 77% 0 in 0.00 W/m2
18:24 35 °F 28.5 °F 29.93 in NW 8.1 mph 3.6 mph 77% 0 in 0.00 W/m2
18:29 35 °F 28.5 °F 29.93 in North 6.9 mph 5.9 mph 77% 0 in 0.00 W/m2
18:34 35 °F 28.2 °F 29.94 in North 7 mph 5.4 mph 76% 0 in 0.00 W/m2
18:39 35 °F 28.2 °F 29.94 in North 12.7 mph 5.6 mph 76% 0 in 0.00 W/m2
18:44 35 °F 28.2 °F 29.95 in North 8.1 mph 4.5 mph 76% 0 in 0.00 W/m2
18:49 34.9 °F 28.1 °F 29.95 in North 8.1 mph 4.9 mph 76% 0 in 0.00 W/m2
18:54 34.9 °F 28.1 °F 29.95 in North 3.5 mph 3.6 mph 76% 0 in 0.00 W/m2
18:59 34.9 °F 28.4 °F 29.95 in North 6.9 mph 4.6 mph 77% 0 in 0.00 W/m2
19:04 34.8 °F 28.3 °F 29.95 in WNW 4.6 mph 2.9 mph 77% 0 in 0.00 W/m2
19:09 34.8 °F 28 °F 29.95 in North 10.4 mph 4.4 mph 76% 0 in 0.00 W/m2
19:12 34.8 °F 28.3 °F 29.95 in North 4 mph 3.9 mph 77% 0 in 0.00 W/m2
19:19 34.7 °F 28.2 °F 29.95 in North 7 mph 6.9 mph 77% 0 in 0.00 W/m2
19:24 34.7 °F 27.9 °F 29.95 in West 5.8 mph 2.4 mph 76% 0 in 0.00 W/m2
19:29 34.6 °F 28.1 °F 29.95 in North 5.8 mph 3.8 mph 77% 0 in 0.00 W/m2
19:34 34.5 °F 28 °F 29.95 in North 7 mph 4.6 mph 77% 0 in 0.00 W/m2
19:39 34.3 °F 27.8 °F 29.95 in North 3.5 mph 0.6 mph 77% 0 in 0.00 W/m2
19:44 34.1 °F 27.6 °F 29.96 in North 5.8 mph 1.8 mph 77% 0 in 0.00 W/m2
19:49 33.9 °F 27.4 °F 29.96 in WSW 3.5 mph 0.9 mph 77% 0 in 0.00 W/m2
19:54 33.7 °F 27.3 °F 29.96 in North 3.5 mph 1.5 mph 77% 0 in 0.00 W/m2
19:59 33.4 °F 27.3 °F 29.96 in North 2.3 mph 0.8 mph 78% 0 in 0.00 W/m2
20:04 33.1 °F 27 °F 29.96 in WSW 3.5 mph 1.8 mph 78% 0 in 0.00 W/m2
20:09 32.9 °F 27.1 °F 29.96 in West 3.5 mph 1.2 mph 79% 0 in 0.00 W/m2
20:14 32.7 °F 27.2 °F 29.96 in West 2.3 mph 0.7 mph 80% 0 in 0.00 W/m2
20:19 32.6 °F 27.1 °F 29.96 in SW 3 mph 1.3 mph 80% 0 in 0.00 W/m2
20:24 32.5 °F 27.3 °F 29.96 in SW 3.5 mph 2.4 mph 81% 0 in 0.00 W/m2
20:29 32.5 °F 27.3 °F 29.97 in North 3.5 mph 2.3 mph 81% 0 in 0.00 W/m2
20:34 32.4 °F 27.2 °F 29.97 in SW 6 mph 3.1 mph 81% 0 in 0.00 W/m2
20:39 32.4 °F 27.2 °F 29.97 in WSW 3.5 mph 0.8 mph 81% 0 in 0.00 W/m2
20:44 32.3 °F 27.1 °F 29.98 in WSW 2.3 mph 0.6 mph 81% 0 in 0.00 W/m2
20:49 32.1 °F 26.9 °F 29.98 in SW 3 mph 0.7 mph 81% 0 in 0.00 W/m2
20:54 32 °F 27.1 °F 29.98 in WSW 3.5 mph 1.6 mph 82% 0 in 0.00 W/m2
20:59 32 °F 27.1 °F 29.98 in Calm     82% 0 in 0.00 W/m2
21:04 32.1 °F 27.2 °F 29.98 in West 3.5 mph 0.3 mph 82% 0 in 0.00 W/m2
21:09 32.1 °F 27.2 °F 29.98 in West 2.3 mph 0.1 mph 82% 0 in 0.00 W/m2
21:14 32.1 °F 27.5 °F 29.98 in Calm     83% 0 in 0.00 W/m2
21:19 32 °F 27.1 °F 29.98 in Calm     82% 0 in 0.00 W/m2
21:24 31.9 °F 27 °F 29.98 in Calm     82% 0 in 0.00 W/m2
21:29 31.7 °F 26.8 °F 29.98 in WSW 3.5 mph 1.4 mph 82% 0 in 0.00 W/m2
21:34 31.5 °F 26.9 °F 29.98 in WSW 1.2 mph 0.2 mph 83% 0 in 0.00 W/m2
21:39 31.4 °F 26.8 °F 29.98 in Calm     83% 0 in 0.00 W/m2
21:44 31.4 °F 26.8 °F 29.98 in Calm     83% 0 in 0.00 W/m2
21:49 31.3 °F 26.7 °F 29.98 in Calm   0.2 mph 83% 0 in 0.00 W/m2
21:54 31.3 °F 27 °F 29.98 in West 2.3 mph 0.3 mph 84% 0 in 0.00 W/m2
21:59 31.3 °F 27 °F 29.98 in West 3.5 mph 0.1 mph 84% 0 in 0.00 W/m2
22:04 31.3 °F 26.7 °F 29.98 in Calm     83% 0 in 0.00 W/m2
22:09 31.3 °F 26.7 °F 29.98 in Calm     83% 0 in 0.00 W/m2
22:14 31.3 °F 26.7 °F 29.98 in North 1 mph 0.4 mph 83% 0 in 0.00 W/m2
22:19 31.3 °F 26.7 °F 29.99 in WNW 2.3 mph   83% 0 in 0.00 W/m2
22:24 31.3 °F 26.7 °F 29.99 in WNW 3.5 mph 0.6 mph 83% 0 in 0.00 W/m2
22:29 31.4 °F 26.8 °F 29.99 in WNW 2.3 mph 0.2 mph 83% 0 in 0.00 W/m2
22:34 31.4 °F 26.8 °F 29.99 in Calm     83% 0 in 0.00 W/m2
22:39 31.2 °F 26.3 °F 29.99 in WNW 1.2 mph   82% 0 in 0.00 W/m2
22:44 31 °F 26.1 °F 29.99 in Calm   0.5 mph 82% 0 in 0.00 W/m2
22:49 30.8 °F 26.2 °F 30.00 in West 2.3 mph 1.2 mph 83% 0 in 0.00 W/m2
22:54 30.8 °F 26.2 °F 30.00 in West 1.2 mph 0.1 mph 83% 0 in 0.00 W/m2
22:59 30.7 °F 26.1 °F 30.00 in Calm     83% 0 in 0.00 W/m2
23:04 30.6 °F 26.1 °F 30.00 in Calm     83% 0 in 0.00 W/m2
23:09 30.5 °F 26 °F 30.00 in Calm     83% 0 in 0.00 W/m2
23:14 30.3 °F 25.8 °F 30.00 in Calm     83% 0 in 0.00 W/m2
23:19 30.1 °F 25.8 °F 30.00 in Calm     84% 0 in 0.00 W/m2
23:24 30.1 °F 25.8 °F 30.00 in Calm     84% 0 in 0.00 W/m2
23:29 30.1 °F 25.8 °F 30.00 in Calm     84% 0 in 0.00 W/m2
23:34 30.1 °F 26.1 °F 30.00 in Calm     85% 0 in 0.00 W/m2
23:39 30 °F 25.8 °F 30.01 in Calm     84% 0 in 0.00 W/m2
23:44 29.9 °F 25.7 °F 30.01 in Calm     84% 0 in 0.00 W/m2
23:49 29.8 °F 25.6 °F 30.01 in Calm     84% 0 in 0.00 W/m2
23:54 29.7 °F 25.5 °F 30.01 in Calm     84% 0 in 0.00 W/m2
23:59 29.5 °F 25.3 °F 30.01 in Calm     84% 0 in 0.00 W/m2
Bourbonnais, Illinois, USA
Compliments of Weather Underground - 4 mb